AirNav   Air Wisconsin pilot careers
 
 1421 users online  

19KY Conrads Airport
Dry Ridge, Kentucky, USA

GOING TO DRY RIDGE?


FAA INFORMATION EFFECTIVE 13 SEPTEMBER 2018

Location

FAA Identifier: 19KY
Lat/Long: 38-42-23.2420N / 084-35-59.7930W
38-42.387367N / 084-35.996550W
38.7064561 / -84.5999425
(estimated)
Elevation: 940 ft. / 287 m (estimated)
Variation: 03W (1985)
From city: 2 miles N of DRY RIDGE, KY
Time zone: UTC -4 (UTC -5 during Standard Time)
Zip code: 41035

Airport Operations

Airport use: Private use. Permission required prior to landing
Activation date: 08/1988
Control tower: no
ARTCC: INDIANAPOLIS CENTER
FSS: LOUISVILLE FLIGHT SERVICE STATION
Attendance: UNATNDD
Wind indicator: yes
Segmented circle: no

Airport Communications

WX AWOS-3 at K62 (10 nm E): 123.825 (859-654-1345)

Nearby radio navigation aids

VOR radial/distance  VOR name  Freq  Var
FLMr288/14.0FALMOUTH VOR/DME117.0004W
CVGr169/19.2CINCINNATI VORTAC117.3004W
FFTr028/(34.6)FRANKFORT VOR109.4003W

 
NDB name  Hdg/Dist  Freq  Var  ID
SPORTYS223/28.624504WPWF .--. .-- ..-.
CINCINNATI208/29.733504WLUK .-.. ..- -.-
MADEIRA204/33.037904WMDE -- -.. .

Airport Services

Runway Information

Runway 18/36

Dimensions: 2200 x 60 ft. / 671 x 18 m
Surface: turf
RUNWAY 18  RUNWAY 36
Traffic pattern: leftleft

Airport Ownership and Management from official FAA records

Ownership: Privately-owned
Owner: MICHAEL CAUDILL
660 BANNISTER PIKE
DRY RIDGE, KY 41035
Phone 859-428-4868
Manager: MICHAEL CAUDILL
660 BANNISTER PIKE
DRY RIDGE, KY 41035
Phone 859-428-4868

Additional Remarks

TWR 1/2 NM S OF ARPT.

Instrument Procedures

There are no published instrument procedures at 19KY.

Some nearby airports with instrument procedures:

K62 - Gene Snyder Airport (10 nm E)
KCVG - Cincinnati/Northern Kentucky International Airport (21 nm N)
0I8 - Cynthiana-Harrison County Airport (25 nm SE)
KLUK - Cincinnati Municipal Airport-Lunken Field (25 nm N)
I69 - Clermont County Airport (29 nm NE)
 
Loc | Ops | Rwys | IFR | FBO | Links
Com | Nav | Svcs | Stats | Notes


 
Area around 19KY (Conrads Airport)
 
Road maps at: MapQuest Bing Google
 
Aerial photo
No photo
 
Sectional chart

 
Airport distance calculator
Flying to Conrads Airport? Find the distance to fly.

From to 19KY

Sunrise and sunset
Times for 21-Sep-2018
 Local
(UTC-4)
 Zulu
(UTC)
Morning civil twilight07:0011:00
Sunrise07:2611:26
Sunset19:3723:37
Evening civil twilight20:0300:03

Current date and time
Zulu (UTC)  21-Sep-2018 17:02:01
Local (UTC-4)  21-Sep-2018 13:02:01
 
METAR
KCVG 
21nm N 
211652Z 21012G19KT 10SM FEW030 FEW140 29/22 A3002 RMK AO2 SLP155 T02890217
KLUK 
25nm N 
211653Z 21015KT 10SM CLR 29/23 A3001 RMK AO2 SLP158 T02940233
KI69 
29nm NE 
211657Z AUTO 20009G16KT 10SM CLR 28/21 A3004 RMK AO2 T02830211
KI67 
34nm N 
211655Z AUTO 23011G17KT 10SM SCT041 SCT048 SCT065 30/20 A3000 RMK AO1
KFFT 
34nm SW 
211653Z AUTO 22009KT 10SM BKN120 28/22 A3007 RMK AO2 SLP173 T02830217 TSNO
KHAO 
40nm N 
211653Z AUTO 23007G15KT 190V260 10SM CLR 31/22 A3001 RMK AO2 SLP155 T03060217
KLEX 
40nm S 
211654Z 19011KT 10SM FEW065 BKN110 27/21 A3010 RMK AO2 SLP181 T02670211
KIMS 
41nm W 
211655Z AUTO 20009G15KT 10SM SCT042 31/20 A3005 RMK AO1
KFGX 
41nm E 
211635Z AUTO 22010G16KT 10SM SCT055 SCT065 OVC095 27/21 A3010 RMK AO2 T02690206
TAF
KCVG 
21nm N 
211510Z 2115/2218 20008KT P6SM BKN070 FM211800 23014G22KT P6SM VCTS BKN050CB TEMPO 2121/2123 3SM -TSRA OVC025CB FM212300 27010KT P6SM VCTS BKN050CB FM220100 33011KT P6SM SCT012 SCT060 BKN180 FM220400 03012KT P6SM SCT012 BKN180
KLUK 
25nm N 
211512Z 2115/2212 21010KT P6SM BKN070 FM211800 23014G22KT P6SM VCTS BKN050CB TEMPO 2121/2123 3SM -TSRA OVC028CB FM212300 26011KT P6SM VCTS BKN050CB FM220100 32009KT P6SM SCT015 SCT060 BKN180 FM220400 02011KT P6SM SCT015 BKN180
NOTAMs
Click for the latest NOTAMs
NOTAMs are issued by the DoD/FAA and will open in a separate window not controlled by AirNav.

 

 
 

Would you like to see your business listed on this page?

 If your business provides an interesting product or service to pilots, flight crews, aircraft, or users of the Conrads Airport, you should consider listing it here.  To start the listing process, click on the button below
 
Add a business
 

Other Pages about Conrads Airport

Update a link
 
Copyright © AirNav, LLC. All rights reserved. Privacy Policy  Contact